sensor_id;sensor_type;location;lat;lon;timestamp;P1;durP1;ratioP1;P2;durP2;ratioP2
41685;SDS011;27370;42.764;23.432;2023-02-28T00:01:13;35.78;;;17.83;;
41685;SDS011;27370;42.764;23.432;2023-02-28T00:03:39;39.38;;;17.42;;
41685;SDS011;27370;42.764;23.432;2023-02-28T00:06:05;35.72;;;16.38;;
41685;SDS011;27370;42.764;23.432;2023-02-28T00:08:32;36.40;;;17.80;;
41685;SDS011;27370;42.764;23.432;2023-02-28T00:11:04;43.30;;;21.42;;
41685;SDS011;27370;42.764;23.432;2023-02-28T00:13:31;43.95;;;22.60;;
41685;SDS011;27370;42.764;23.432;2023-02-28T00:16:02;40.10;;;20.27;;
41685;SDS011;27370;42.764;23.432;2023-02-28T00:18:31;37.67;;;18.63;;
41685;SDS011;27370;42.764;23.432;2023-02-28T00:20:57;37.20;;;19.00;;
41685;SDS011;27370;42.764;23.432;2023-02-28T00:23:25;41.40;;;19.13;;
41685;SDS011;27370;42.764;23.432;2023-02-28T00:25:52;37.25;;;19.27;;
41685;SDS011;27370;42.764;23.432;2023-02-28T00:28:18;39.70;;;20.42;;
41685;SDS011;27370;42.764;23.432;2023-02-28T00:30:45;38.33;;;19.23;;
41685;SDS011;27370;42.764;23.432;2023-02-28T00:33:10;33.17;;;17.88;;
41685;SDS011;27370;42.764;23.432;2023-02-28T00:35:36;35.42;;;16.95;;
41685;SDS011;27370;42.764;23.432;2023-02-28T00:38:01;34.90;;;17.88;;
41685;SDS011;27370;42.764;23.432;2023-02-28T00:40:27;31.45;;;16.38;;
41685;SDS011;27370;42.764;23.432;2023-02-28T00:42:53;34.20;;;17.33;;
41685;SDS011;27370;42.764;23.432;2023-02-28T00:45:19;34.67;;;18.40;;
41685;SDS011;27370;42.764;23.432;2023-02-28T00:47:45;36.05;;;17.48;;
41685;SDS011;27370;42.764;23.432;2023-02-28T00:50:11;38.97;;;20.45;;
41685;SDS011;27370;42.764;23.432;2023-02-28T00:52:37;39.03;;;20.92;;
41685;SDS011;27370;42.764;23.432;2023-02-28T00:55:03;41.00;;;21.02;;
41685;SDS011;27370;42.764;23.432;2023-02-28T00:57:29;43.72;;;24.52;;
41685;SDS011;27370;42.764;23.432;2023-02-28T00:59:54;42.47;;;21.42;;
41685;SDS011;27370;42.764;23.432;2023-02-28T01:02:21;37.10;;;19.40;;
41685;SDS011;27370;42.764;23.432;2023-02-28T01:04:47;40.38;;;20.05;;
41685;SDS011;27370;42.764;23.432;2023-02-28T01:07:13;48.85;;;23.40;;
41685;SDS011;27370;42.764;23.432;2023-02-28T01:09:39;47.28;;;22.58;;
41685;SDS011;27370;42.764;23.432;2023-02-28T01:12:06;56.05;;;28.55;;
41685;SDS011;27370;42.764;23.432;2023-02-28T01:14:32;52.75;;;26.67;;
41685;SDS011;27370;42.764;23.432;2023-02-28T01:16:58;52.17;;;27.45;;
41685;SDS011;27370;42.764;23.432;2023-02-28T01:19:24;54.90;;;28.20;;
41685;SDS011;27370;42.764;23.432;2023-02-28T01:21:49;57.90;;;30.30;;
41685;SDS011;27370;42.764;23.432;2023-02-28T01:24:15;59.72;;;30.08;;
41685;SDS011;27370;42.764;23.432;2023-02-28T01:26:40;60.25;;;29.77;;
41685;SDS011;27370;42.764;23.432;2023-02-28T01:29:06;50.30;;;27.20;;
41685;SDS011;27370;42.764;23.432;2023-02-28T01:31:32;55.70;;;27.40;;
41685;SDS011;27370;42.764;23.432;2023-02-28T01:33:58;51.50;;;25.30;;
41685;SDS011;27370;42.764;23.432;2023-02-28T01:36:27;50.88;;;25.75;;
41685;SDS011;27370;42.764;23.432;2023-02-28T01:38:54;54.90;;;26.00;;
41685;SDS011;27370;42.764;23.432;2023-02-28T01:41:24;54.10;;;24.48;;
41685;SDS011;27370;42.764;23.432;2023-02-28T01:44:00;47.60;;;22.25;;
41685;SDS011;27370;42.764;23.432;2023-02-28T01:46:28;45.50;;;22.17;;
41685;SDS011;27370;42.764;23.432;2023-02-28T01:49:03;40.67;;;20.75;;
41685;SDS011;27370;42.764;23.432;2023-02-28T01:51:42;46.60;;;21.45;;
41685;SDS011;27370;42.764;23.432;2023-02-28T01:54:16;43.58;;;21.15;;
41685;SDS011;27370;42.764;23.432;2023-02-28T01:56:48;48.35;;;21.63;;
41685;SDS011;27370;42.764;23.432;2023-02-28T01:59:21;51.13;;;22.05;;
41685;SDS011;27370;42.764;23.432;2023-02-28T02:01:50;47.08;;;21.73;;
41685;SDS011;27370;42.764;23.432;2023-02-28T02:04:17;37.90;;;19.67;;
41685;SDS011;27370;42.764;23.432;2023-02-28T02:06:45;46.22;;;22.75;;
41685;SDS011;27370;42.764;23.432;2023-02-28T02:09:13;49.85;;;23.25;;
41685;SDS011;27370;42.764;23.432;2023-02-28T02:11:39;45.65;;;22.00;;
41685;SDS011;27370;42.764;23.432;2023-02-28T02:16:58;45.08;;;21.73;;
41685;SDS011;27370;42.764;23.432;2023-02-28T02:20:06;44.95;;;22.48;;
41685;SDS011;27370;42.764;23.432;2023-02-28T02:28:35;60.15;;;27.27;;
41685;SDS011;27370;42.764;23.432;2023-02-28T02:31:12;58.72;;;25.73;;
41685;SDS011;27370;42.764;23.432;2023-02-28T02:36:58;78.45;;;30.38;;
41685;SDS011;27370;42.764;23.432;2023-02-28T02:39:37;87.70;;;32.15;;
41685;SDS011;27370;42.764;23.432;2023-02-28T02:42:14;190.65;;;40.55;;
41685;SDS011;27370;42.764;23.432;2023-02-28T02:44:47;111.05;;;34.95;;
41685;SDS011;27370;42.764;23.432;2023-02-28T02:47:19;110.45;;;35.20;;
41685;SDS011;27370;42.764;23.432;2023-02-28T02:49:50;107.25;;;32.08;;
41685;SDS011;27370;42.764;23.432;2023-02-28T02:52:20;314.38;;;39.25;;
41685;SDS011;27370;42.764;23.432;2023-02-28T02:54:50;225.50;;;33.67;;
41685;SDS011;27370;42.764;23.432;2023-02-28T02:57:21;148.95;;;30.02;;
41685;SDS011;27370;42.764;23.432;2023-02-28T02:59:53;183.60;;;30.23;;
41685;SDS011;27370;42.764;23.432;2023-02-28T03:02:21;195.73;;;29.88;;
41685;SDS011;27370;42.764;23.432;2023-02-28T03:04:51;165.98;;;29.40;;
41685;SDS011;27370;42.764;23.432;2023-02-28T03:07:20;191.85;;;27.73;;
41685;SDS011;27370;42.764;23.432;2023-02-28T03:09:53;272.77;;;32.60;;
41685;SDS011;27370;42.764;23.432;2023-02-28T03:12:20;201.38;;;33.60;;
41685;SDS011;27370;42.764;23.432;2023-02-28T03:14:58;150.10;;;26.92;;
41685;SDS011;27370;42.764;23.432;2023-02-28T03:17:46;195.65;;;31.58;;
41685;SDS011;27370;42.764;23.432;2023-02-28T03:20:27;279.75;;;40.78;;
41685;SDS011;27370;42.764;23.432;2023-02-28T03:23:09;388.08;;;44.88;;
41685;SDS011;27370;42.764;23.432;2023-02-28T03:28:32;370.70;;;44.20;;
41685;SDS011;27370;42.764;23.432;2023-02-28T03:34:00;371.25;;;49.95;;
41685;SDS011;27370;42.764;23.432;2023-02-28T03:36:38;340.05;;;56.92;;
41685;SDS011;27370;42.764;23.432;2023-02-28T03:39:16;358.85;;;54.50;;
41685;SDS011;27370;42.764;23.432;2023-02-28T03:41:52;384.20;;;51.55;;
41685;SDS011;27370;42.764;23.432;2023-02-28T03:44:24;360.95;;;50.58;;
41685;SDS011;27370;42.764;23.432;2023-02-28T03:47:09;402.25;;;50.17;;
41685;SDS011;27370;42.764;23.432;2023-02-28T03:49:52;422.60;;;48.88;;
41685;SDS011;27370;42.764;23.432;2023-02-28T03:52:22;351.92;;;44.15;;
41685;SDS011;27370;42.764;23.432;2023-02-28T03:54:53;343.60;;;42.83;;
41685;SDS011;27370;42.764;23.432;2023-02-28T03:57:32;388.23;;;43.45;;
41685;SDS011;27370;42.764;23.432;2023-02-28T04:00:02;258.67;;;36.87;;
41685;SDS011;27370;42.764;23.432;2023-02-28T04:02:37;334.98;;;41.60;;
41685;SDS011;27370;42.764;23.432;2023-02-28T04:05:04;290.05;;;35.17;;
41685;SDS011;27370;42.764;23.432;2023-02-28T04:07:31;217.50;;;32.30;;
41685;SDS011;27370;42.764;23.432;2023-02-28T04:09:57;267.05;;;35.28;;
41685;SDS011;27370;42.764;23.432;2023-02-28T04:12:24;216.00;;;28.40;;
41685;SDS011;27370;42.764;23.432;2023-02-28T04:14:50;175.80;;;28.58;;
41685;SDS011;27370;42.764;23.432;2023-02-28T04:17:16;210.63;;;31.08;;
41685;SDS011;27370;42.764;23.432;2023-02-28T04:19:41;259.90;;;35.78;;
41685;SDS011;27370;42.764;23.432;2023-02-28T04:22:07;221.60;;;26.65;;
41685;SDS011;27370;42.764;23.432;2023-02-28T04:24:34;151.02;;;21.20;;
41685;SDS011;27370;42.764;23.432;2023-02-28T04:27:00;301.67;;;31.88;;
41685;SDS011;27370;42.764;23.432;2023-02-28T04:29:26;190.73;;;27.92;;
41685;SDS011;27370;42.764;23.432;2023-02-28T04:31:53;142.40;;;24.33;;
41685;SDS011;27370;42.764;23.432;2023-02-28T04:34:20;187.77;;;27.17;;
41685;SDS011;27370;42.764;23.432;2023-02-28T04:36:47;241.23;;;29.20;;
41685;SDS011;27370;42.764;23.432;2023-02-28T04:39:16;194.43;;;24.05;;
41685;SDS011;27370;42.764;23.432;2023-02-28T04:41:43;264.70;;;31.58;;
41685;SDS011;27370;42.764;23.432;2023-02-28T04:44:09;222.85;;;31.20;;
41685;SDS011;27370;42.764;23.432;2023-02-28T04:46:35;191.27;;;27.15;;
41685;SDS011;27370;42.764;23.432;2023-02-28T04:49:01;232.65;;;34.03;;
41685;SDS011;27370;42.764;23.432;2023-02-28T04:51:26;287.30;;;37.95;;
41685;SDS011;27370;42.764;23.432;2023-02-28T04:53:52;275.42;;;37.05;;
41685;SDS011;27370;42.764;23.432;2023-02-28T04:56:18;253.73;;;38.85;;
41685;SDS011;27370;42.764;23.432;2023-02-28T04:58:44;322.17;;;42.05;;
41685;SDS011;27370;42.764;23.432;2023-02-28T05:03:44;287.33;;;39.72;;
41685;SDS011;27370;42.764;23.432;2023-02-28T05:06:10;245.85;;;35.25;;
41685;SDS011;27370;42.764;23.432;2023-02-28T05:08:36;193.98;;;31.33;;
41685;SDS011;27370;42.764;23.432;2023-02-28T05:11:02;144.40;;;26.77;;
41685;SDS011;27370;42.764;23.432;2023-02-28T05:13:29;206.43;;;32.95;;
41685;SDS011;27370;42.764;23.432;2023-02-28T05:15:55;218.65;;;35.00;;
41685;SDS011;27370;42.764;23.432;2023-02-28T05:18:21;239.88;;;36.30;;
41685;SDS011;27370;42.764;23.432;2023-02-28T05:20:46;199.30;;;32.67;;
41685;SDS011;27370;42.764;23.432;2023-02-28T05:23:12;147.55;;;28.65;;
41685;SDS011;27370;42.764;23.432;2023-02-28T05:25:39;74.65;;;25.05;;
41685;SDS011;27370;42.764;23.432;2023-02-28T05:28:05;56.35;;;23.63;;
41685;SDS011;27370;42.764;23.432;2023-02-28T05:30:31;55.80;;;23.13;;
41685;SDS011;27370;42.764;23.432;2023-02-28T05:32:57;60.63;;;23.30;;
41685;SDS011;27370;42.764;23.432;2023-02-28T05:35:23;50.40;;;21.55;;
41685;SDS011;27370;42.764;23.432;2023-02-28T05:37:49;55.78;;;22.95;;
41685;SDS011;27370;42.764;23.432;2023-02-28T05:40:16;52.75;;;23.08;;
41685;SDS011;27370;42.764;23.432;2023-02-28T05:42:42;49.28;;;22.38;;
41685;SDS011;27370;42.764;23.432;2023-02-28T05:45:08;37.83;;;19.60;;
41685;SDS011;27370;42.764;23.432;2023-02-28T05:47:34;37.58;;;19.45;;
41685;SDS011;27370;42.764;23.432;2023-02-28T05:50:00;37.78;;;19.08;;
41685;SDS011;27370;42.764;23.432;2023-02-28T05:52:27;40.40;;;21.80;;
41685;SDS011;27370;42.764;23.432;2023-02-28T05:54:55;37.85;;;19.58;;
41685;SDS011;27370;42.764;23.432;2023-02-28T05:57:20;55.50;;;27.77;;
41685;SDS011;27370;42.764;23.432;2023-02-28T05:59:46;55.33;;;27.42;;
41685;SDS011;27370;42.764;23.432;2023-02-28T06:02:12;49.80;;;25.88;;
41685;SDS011;27370;42.764;23.432;2023-02-28T06:04:39;81.15;;;40.80;;
41685;SDS011;27370;42.764;23.432;2023-02-28T06:07:06;65.90;;;33.53;;
41685;SDS011;27370;42.764;23.432;2023-02-28T06:09:33;59.60;;;30.15;;
41685;SDS011;27370;42.764;23.432;2023-02-28T06:11:59;68.53;;;34.78;;
41685;SDS011;27370;42.764;23.432;2023-02-28T06:14:25;64.70;;;34.50;;
41685;SDS011;27370;42.764;23.432;2023-02-28T06:16:51;70.50;;;34.83;;
41685;SDS011;27370;42.764;23.432;2023-02-28T06:19:17;56.75;;;28.42;;
41685;SDS011;27370;42.764;23.432;2023-02-28T06:21:42;66.22;;;30.38;;
41685;SDS011;27370;42.764;23.432;2023-02-28T06:24:09;59.20;;;29.05;;
41685;SDS011;27370;42.764;23.432;2023-02-28T06:26:34;64.30;;;30.05;;
41685;SDS011;27370;42.764;23.432;2023-02-28T06:29:00;70.75;;;31.23;;
41685;SDS011;27370;42.764;23.432;2023-02-28T06:31:26;67.30;;;31.08;;
41685;SDS011;27370;42.764;23.432;2023-02-28T06:33:54;59.72;;;28.55;;
41685;SDS011;27370;42.764;23.432;2023-02-28T06:36:20;45.50;;;23.58;;
41685;SDS011;27370;42.764;23.432;2023-02-28T06:38:46;45.30;;;25.10;;
41685;SDS011;27370;42.764;23.432;2023-02-28T06:41:16;45.08;;;24.70;;
41685;SDS011;27370;42.764;23.432;2023-02-28T06:43:42;44.20;;;25.05;;
41685;SDS011;27370;42.764;23.432;2023-02-28T06:46:10;54.15;;;30.55;;
41685;SDS011;27370;42.764;23.432;2023-02-28T06:48:37;53.58;;;30.73;;
41685;SDS011;27370;42.764;23.432;2023-02-28T06:51:07;39.80;;;23.73;;
41685;SDS011;27370;42.764;23.432;2023-02-28T06:53:34;38.35;;;21.73;;
41685;SDS011;27370;42.764;23.432;2023-02-28T06:56:03;43.28;;;22.42;;
41685;SDS011;27370;42.764;23.432;2023-02-28T06:58:31;44.30;;;22.83;;
41685;SDS011;27370;42.764;23.432;2023-02-28T07:00:57;41.60;;;21.83;;
41685;SDS011;27370;42.764;23.432;2023-02-28T07:03:22;40.60;;;21.80;;
41685;SDS011;27370;42.764;23.432;2023-02-28T07:05:48;35.35;;;19.85;;
41685;SDS011;27370;42.764;23.432;2023-02-28T07:08:14;43.40;;;21.45;;
41685;SDS011;27370;42.764;23.432;2023-02-28T07:10:39;53.88;;;25.30;;
41685;SDS011;27370;42.764;23.432;2023-02-28T07:13:06;49.10;;;26.42;;
41685;SDS011;27370;42.764;23.432;2023-02-28T07:15:34;48.53;;;25.88;;
41685;SDS011;27370;42.764;23.432;2023-02-28T07:18:00;47.15;;;27.33;;
41685;SDS011;27370;42.764;23.432;2023-02-28T07:20:26;81.97;;;39.20;;
41685;SDS011;27370;42.764;23.432;2023-02-28T07:22:51;61.72;;;31.10;;
41685;SDS011;27370;42.764;23.432;2023-02-28T07:27:51;51.72;;;24.95;;
41685;SDS011;27370;42.764;23.432;2023-02-28T07:30:17;44.78;;;25.05;;
41685;SDS011;27370;42.764;23.432;2023-02-28T07:32:43;44.22;;;24.00;;
41685;SDS011;27370;42.764;23.432;2023-02-28T07:35:08;47.10;;;25.58;;
41685;SDS011;27370;42.764;23.432;2023-02-28T07:37:34;56.65;;;26.33;;
41685;SDS011;27370;42.764;23.432;2023-02-28T07:40:06;62.95;;;33.38;;
41685;SDS011;27370;42.764;23.432;2023-02-28T07:42:34;58.80;;;29.48;;
41685;SDS011;27370;42.764;23.432;2023-02-28T07:45:02;66.00;;;30.52;;
41685;SDS011;27370;42.764;23.432;2023-02-28T07:47:29;71.03;;;30.77;;
41685;SDS011;27370;42.764;23.432;2023-02-28T07:49:55;61.30;;;30.40;;
41685;SDS011;27370;42.764;23.432;2023-02-28T07:52:21;64.72;;;31.30;;
41685;SDS011;27370;42.764;23.432;2023-02-28T07:54:48;63.40;;;31.52;;
41685;SDS011;27370;42.764;23.432;2023-02-28T07:57:13;61.65;;;31.90;;
41685;SDS011;27370;42.764;23.432;2023-02-28T07:59:39;59.80;;;30.70;;
41685;SDS011;27370;42.764;23.432;2023-02-28T08:02:04;56.60;;;28.95;;
41685;SDS011;27370;42.764;23.432;2023-02-28T08:04:33;56.05;;;29.83;;
41685;SDS011;27370;42.764;23.432;2023-02-28T08:06:58;58.20;;;29.15;;
41685;SDS011;27370;42.764;23.432;2023-02-28T08:09:24;47.40;;;26.15;;
41685;SDS011;27370;42.764;23.432;2023-02-28T08:11:51;48.08;;;26.45;;
41685;SDS011;27370;42.764;23.432;2023-02-28T08:14:16;44.67;;;24.70;;
41685;SDS011;27370;42.764;23.432;2023-02-28T08:16:42;44.30;;;23.75;;
41685;SDS011;27370;42.764;23.432;2023-02-28T08:19:08;43.75;;;23.52;;
41685;SDS011;27370;42.764;23.432;2023-02-28T08:21:34;42.22;;;22.83;;
41685;SDS011;27370;42.764;23.432;2023-02-28T08:23:59;38.25;;;21.23;;
41685;SDS011;27370;42.764;23.432;2023-02-28T08:26:25;45.72;;;28.10;;
41685;SDS011;27370;42.764;23.432;2023-02-28T08:28:50;46.28;;;26.17;;
41685;SDS011;27370;42.764;23.432;2023-02-28T08:31:16;46.10;;;24.70;;
41685;SDS011;27370;42.764;23.432;2023-02-28T08:33:43;33.67;;;21.58;;
41685;SDS011;27370;42.764;23.432;2023-02-28T08:36:09;35.15;;;20.40;;
41685;SDS011;27370;42.764;23.432;2023-02-28T08:38:36;34.05;;;20.25;;
41685;SDS011;27370;42.764;23.432;2023-02-28T08:41:03;32.55;;;20.08;;
41685;SDS011;27370;42.764;23.432;2023-02-28T08:43:32;33.17;;;20.73;;
41685;SDS011;27370;42.764;23.432;2023-02-28T08:46:01;37.40;;;20.80;;
41685;SDS011;27370;42.764;23.432;2023-02-28T08:48:27;35.70;;;20.35;;
41685;SDS011;27370;42.764;23.432;2023-02-28T08:51:05;43.13;;;24.77;;
41685;SDS011;27370;42.764;23.432;2023-02-28T08:53:32;61.58;;;30.83;;
41685;SDS011;27370;42.764;23.432;2023-02-28T08:56:08;45.95;;;24.90;;
41685;SDS011;27370;42.764;23.432;2023-02-28T08:58:35;39.10;;;23.15;;
41685;SDS011;27370;42.764;23.432;2023-02-28T09:01:09;37.40;;;22.75;;
41685;SDS011;27370;42.764;23.432;2023-02-28T09:03:40;36.72;;;20.38;;
41685;SDS011;27370;42.764;23.432;2023-02-28T09:06:06;34.78;;;19.13;;
41685;SDS011;27370;42.764;23.432;2023-02-28T09:08:33;37.15;;;21.42;;
41685;SDS011;27370;42.764;23.432;2023-02-28T09:10:58;35.83;;;20.63;;
41685;SDS011;27370;42.764;23.432;2023-02-28T09:13:25;38.72;;;21.88;;
41685;SDS011;27370;42.764;23.432;2023-02-28T09:15:51;35.10;;;20.92;;
41685;SDS011;27370;42.764;23.432;2023-02-28T09:18:17;32.58;;;20.48;;
41685;SDS011;27370;42.764;23.432;2023-02-28T09:20:43;33.85;;;19.38;;
41685;SDS011;27370;42.764;23.432;2023-02-28T09:23:09;33.97;;;20.58;;
41685;SDS011;27370;42.764;23.432;2023-02-28T09:25:37;36.83;;;20.02;;
41685;SDS011;27370;42.764;23.432;2023-02-28T09:28:03;34.72;;;21.20;;
41685;SDS011;27370;42.764;23.432;2023-02-28T09:30:29;31.23;;;19.33;;
41685;SDS011;27370;42.764;23.432;2023-02-28T09:32:55;33.92;;;19.23;;
41685;SDS011;27370;42.764;23.432;2023-02-28T09:35:21;28.42;;;17.35;;
41685;SDS011;27370;42.764;23.432;2023-02-28T09:37:51;32.63;;;16.85;;
41685;SDS011;27370;42.764;23.432;2023-02-28T09:40:17;32.30;;;18.40;;
41685;SDS011;27370;42.764;23.432;2023-02-28T09:42:47;24.58;;;15.80;;
41685;SDS011;27370;42.764;23.432;2023-02-28T09:48:02;34.92;;;19.40;;
41685;SDS011;27370;42.764;23.432;2023-02-28T09:53:26;40.08;;;24.38;;
41685;SDS011;27370;42.764;23.432;2023-02-28T09:55:57;29.13;;;17.63;;
41685;SDS011;27370;42.764;23.432;2023-02-28T09:58:32;27.90;;;17.17;;
41685;SDS011;27370;42.764;23.432;2023-02-28T10:01:11;26.27;;;15.60;;
41685;SDS011;27370;42.764;23.432;2023-02-28T10:06:44;25.38;;;16.77;;
41685;SDS011;27370;42.764;23.432;2023-02-28T10:09:21;26.05;;;15.38;;
41685;SDS011;27370;42.764;23.432;2023-02-28T10:11:51;23.25;;;13.57;;
41685;SDS011;27370;42.764;23.432;2023-02-28T10:14:19;24.05;;;15.15;;
41685;SDS011;27370;42.764;23.432;2023-02-28T10:16:52;24.30;;;14.03;;
41685;SDS011;27370;42.764;23.432;2023-02-28T10:22:27;23.98;;;15.13;;
41685;SDS011;27370;42.764;23.432;2023-02-28T10:24:54;25.35;;;15.07;;
41685;SDS011;27370;42.764;23.432;2023-02-28T10:27:29;22.00;;;14.15;;
41685;SDS011;27370;42.764;23.432;2023-02-28T10:29:57;22.23;;;12.85;;
41685;SDS011;27370;42.764;23.432;2023-02-28T10:37:27;31.65;;;16.70;;
41685;SDS011;27370;42.764;23.432;2023-02-28T10:39:53;24.20;;;15.52;;
41685;SDS011;27370;42.764;23.432;2023-02-28T10:42:20;33.85;;;17.38;;
41685;SDS011;27370;42.764;23.432;2023-02-28T10:45:07;24.73;;;14.85;;
41685;SDS011;27370;42.764;23.432;2023-02-28T10:47:36;24.05;;;13.60;;
41685;SDS011;27370;42.764;23.432;2023-02-28T11:01:16;30.25;;;15.35;;
41685;SDS011;27370;42.764;23.432;2023-02-28T11:03:45;26.77;;;14.55;;
41685;SDS011;27370;42.764;23.432;2023-02-28T11:06:19;27.25;;;14.18;;
41685;SDS011;27370;42.764;23.432;2023-02-28T11:09:34;26.20;;;14.52;;
41685;SDS011;27370;42.764;23.432;2023-02-28T11:11:48;30.60;;;16.85;;
41685;SDS011;27370;42.764;23.432;2023-02-28T11:14:19;27.00;;;16.52;;
41685;SDS011;27370;42.764;23.432;2023-02-28T11:16:45;26.13;;;15.57;;
41685;SDS011;27370;42.764;23.432;2023-02-28T11:19:16;28.67;;;17.23;;
41685;SDS011;27370;42.764;23.432;2023-02-28T11:21:57;25.95;;;15.90;;
41685;SDS011;27370;42.764;23.432;2023-02-28T11:24:26;30.75;;;17.23;;
41685;SDS011;27370;42.764;23.432;2023-02-28T11:26:55;27.60;;;16.80;;
41685;SDS011;27370;42.764;23.432;2023-02-28T11:29:25;27.67;;;13.93;;
41685;SDS011;27370;42.764;23.432;2023-02-28T11:32:18;26.75;;;14.02;;
41685;SDS011;27370;42.764;23.432;2023-02-28T11:34:46;26.30;;;14.52;;
41685;SDS011;27370;42.764;23.432;2023-02-28T11:37:24;28.55;;;15.38;;
41685;SDS011;27370;42.764;23.432;2023-02-28T11:39:52;28.33;;;15.27;;
41685;SDS011;27370;42.764;23.432;2023-02-28T11:51:26;31.65;;;18.25;;
41685;SDS011;27370;42.764;23.432;2023-02-28T11:56:25;30.45;;;14.20;;
41685;SDS011;27370;42.764;23.432;2023-02-28T12:01:54;25.45;;;13.40;;
41685;SDS011;27370;42.764;23.432;2023-02-28T12:04:31;23.90;;;14.55;;
41685;SDS011;27370;42.764;23.432;2023-02-28T12:07:09;25.10;;;14.18;;
41685;SDS011;27370;42.764;23.432;2023-02-28T12:10:26;28.50;;;14.52;;
41685;SDS011;27370;42.764;23.432;2023-02-28T12:15:49;23.55;;;13.27;;
41685;SDS011;27370;42.764;23.432;2023-02-28T12:28:51;24.38;;;13.55;;
41685;SDS011;27370;42.764;23.432;2023-02-28T12:31:35;20.80;;;12.90;;
41685;SDS011;27370;42.764;23.432;2023-02-28T12:34:27;25.40;;;12.20;;
41685;SDS011;27370;42.764;23.432;2023-02-28T12:36:53;24.00;;;12.20;;
41685;SDS011;27370;42.764;23.432;2023-02-28T12:39:25;23.08;;;12.73;;
41685;SDS011;27370;42.764;23.432;2023-02-28T12:42:07;22.23;;;12.23;;
41685;SDS011;27370;42.764;23.432;2023-02-28T12:47:26;23.25;;;12.50;;
41685;SDS011;27370;42.764;23.432;2023-02-28T12:49:53;26.83;;;12.63;;
41685;SDS011;27370;42.764;23.432;2023-02-28T12:52:28;24.83;;;13.07;;
41685;SDS011;27370;42.764;23.432;2023-02-28T12:55:19;29.08;;;13.75;;
41685;SDS011;27370;42.764;23.432;2023-02-28T13:00:38;26.20;;;13.90;;
41685;SDS011;27370;42.764;23.432;2023-02-28T13:06:59;26.88;;;15.23;;
41685;SDS011;27370;42.764;23.432;2023-02-28T13:09:13;26.52;;;13.82;;
41685;SDS011;27370;42.764;23.432;2023-02-28T13:11:44;29.70;;;13.25;;
41685;SDS011;27370;42.764;23.432;2023-02-28T13:19:23;25.10;;;12.77;;
41685;SDS011;27370;42.764;23.432;2023-02-28T13:21:52;28.25;;;12.98;;
41685;SDS011;27370;42.764;23.432;2023-02-28T13:29:31;29.92;;;16.60;;
41685;SDS011;27370;42.764;23.432;2023-02-28T13:34:31;26.55;;;12.95;;
41685;SDS011;27370;42.764;23.432;2023-02-28T14:01:11;27.85;;;12.73;;
41685;SDS011;27370;42.764;23.432;2023-02-28T14:06:46;29.75;;;16.27;;
41685;SDS011;27370;42.764;23.432;2023-02-28T14:09:20;34.47;;;16.73;;
41685;SDS011;27370;42.764;23.432;2023-02-28T14:11:50;24.00;;;12.88;;
41685;SDS011;27370;42.764;23.432;2023-02-28T14:17:01;39.45;;;18.80;;
41685;SDS011;27370;42.764;23.432;2023-02-28T14:19:33;23.45;;;12.60;;
41685;SDS011;27370;42.764;23.432;2023-02-28T14:41:16;20.08;;;12.15;;
41685;SDS011;27370;42.764;23.432;2023-02-28T14:43:52;26.17;;;14.88;;
41685;SDS011;27370;42.764;23.432;2023-02-28T14:46:20;23.13;;;12.88;;
41685;SDS011;27370;42.764;23.432;2023-02-28T14:48:47;23.08;;;13.30;;
41685;SDS011;27370;42.764;23.432;2023-02-28T14:51:17;22.75;;;12.95;;
41685;SDS011;27370;42.764;23.432;2023-02-28T14:53:48;23.42;;;14.18;;
41685;SDS011;27370;42.764;23.432;2023-02-28T14:56:49;23.33;;;12.35;;
41685;SDS011;27370;42.764;23.432;2023-02-28T14:59:24;20.30;;;11.93;;
41685;SDS011;27370;42.764;23.432;2023-02-28T15:04:54;25.33;;;15.63;;
41685;SDS011;27370;42.764;23.432;2023-02-28T15:07:24;24.30;;;12.73;;
41685;SDS011;27370;42.764;23.432;2023-02-28T15:15:21;20.02;;;11.05;;
41685;SDS011;27370;42.764;23.432;2023-02-28T15:17:50;18.35;;;11.13;;
41685;SDS011;27370;42.764;23.432;2023-02-28T15:20:20;12.32;;;5.10;;
41685;SDS011;27370;42.764;23.432;2023-02-28T15:22:47;10.43;;;4.32;;
41685;SDS011;27370;42.764;23.432;2023-02-28T15:25:18;15.73;;;7.80;;
41685;SDS011;27370;42.764;23.432;2023-02-28T15:27:47;13.13;;;6.18;;
41685;SDS011;27370;42.764;23.432;2023-02-28T15:30:20;10.70;;;4.75;;
41685;SDS011;27370;42.764;23.432;2023-02-28T15:35:38;11.93;;;5.05;;
41685;SDS011;27370;42.764;23.432;2023-02-28T15:38:23;8.52;;;3.67;;
41685;SDS011;27370;42.764;23.432;2023-02-28T15:40:56;9.75;;;4.20;;
41685;SDS011;27370;42.764;23.432;2023-02-28T15:46:05;12.73;;;4.53;;
41685;SDS011;27370;42.764;23.432;2023-02-28T15:48:42;7.72;;;2.75;;
41685;SDS011;27370;42.764;23.432;2023-02-28T15:51:17;12.25;;;4.72;;
41685;SDS011;27370;42.764;23.432;2023-02-28T15:53:47;8.65;;;3.95;;
41685;SDS011;27370;42.764;23.432;2023-02-28T15:58:44;8.50;;;2.80;;
41685;SDS011;27370;42.764;23.432;2023-02-28T16:01:17;10.85;;;4.20;;
41685;SDS011;27370;42.764;23.432;2023-02-28T16:03:49;9.10;;;3.20;;
41685;SDS011;27370;42.764;23.432;2023-02-28T16:06:39;9.63;;;3.90;;
41685;SDS011;27370;42.764;23.432;2023-02-28T16:09:06;12.65;;;3.45;;
41685;SDS011;27370;42.764;23.432;2023-02-28T16:11:34;8.00;;;3.23;;
41685;SDS011;27370;42.764;23.432;2023-02-28T16:14:04;9.45;;;3.03;;
41685;SDS011;27370;42.764;23.432;2023-02-28T16:16:30;10.55;;;3.72;;
41685;SDS011;27370;42.764;23.432;2023-02-28T16:18:56;9.20;;;3.13;;
41685;SDS011;27370;42.764;23.432;2023-02-28T16:21:22;9.48;;;3.50;;
41685;SDS011;27370;42.764;23.432;2023-02-28T16:23:48;9.52;;;3.30;;
41685;SDS011;27370;42.764;23.432;2023-02-28T16:26:23;9.73;;;3.08;;
41685;SDS011;27370;42.764;23.432;2023-02-28T16:28:50;8.88;;;2.80;;
41685;SDS011;27370;42.764;23.432;2023-02-28T16:31:16;7.28;;;2.33;;
41685;SDS011;27370;42.764;23.432;2023-02-28T16:33:43;8.80;;;2.30;;
41685;SDS011;27370;42.764;23.432;2023-02-28T16:36:13;11.93;;;3.33;;
41685;SDS011;27370;42.764;23.432;2023-02-28T16:41:07;11.63;;;6.28;;
41685;SDS011;27370;42.764;23.432;2023-02-28T16:43:44;8.88;;;2.60;;
41685;SDS011;27370;42.764;23.432;2023-02-28T16:46:11;11.05;;;2.42;;
41685;SDS011;27370;42.764;23.432;2023-02-28T16:48:37;6.97;;;2.38;;
41685;SDS011;27370;42.764;23.432;2023-02-28T16:51:04;7.55;;;2.80;;
41685;SDS011;27370;42.764;23.432;2023-02-28T16:53:30;21.60;;;7.22;;
41685;SDS011;27370;42.764;23.432;2023-02-28T16:55:55;12.85;;;3.70;;
41685;SDS011;27370;42.764;23.432;2023-02-28T16:58:21;8.10;;;3.45;;
41685;SDS011;27370;42.764;23.432;2023-02-28T17:00:50;10.15;;;3.67;;
41685;SDS011;27370;42.764;23.432;2023-02-28T17:03:24;14.43;;;4.88;;
41685;SDS011;27370;42.764;23.432;2023-02-28T17:05:52;31.95;;;16.52;;
41685;SDS011;27370;42.764;23.432;2023-02-28T17:08:18;15.77;;;7.57;;
41685;SDS011;27370;42.764;23.432;2023-02-28T17:10:44;37.85;;;15.07;;